Time;durP1;ratioP1;P1;durP2;ratioP2;P2;SDS_P1;SDS_P2;PMS_P1;PMS_P2;Temp;Humidity;BMP_temperature;BMP_pressure;BME280_temperature;BME280_humidity;BME280_pressure;Samples;Min_cycle;Max_cycle;Signal;HPM_P1;HPM_P2
2023/04/24 00:02:12;;;;;;;7.77;2.67;;;;;;;12.06;99.11;99767.88;5092638;28;20980;-67
2023/04/24 00:04:40;;;;;;;8.23;2.90;;;;;;;12.04;98.90;99763.91;5092849;28;20457;-67
2023/04/24 00:07:08;;;;;;;11.47;2.70;;;;;;;12.05;98.72;99766.28;5092917;28;20437;-67
2023/04/24 00:09:35;;;;;;;8.53;3.17;;;;;;;12.06;98.46;99764.38;5092912;28;20444;-67
2023/04/24 00:12:03;;;;;;;9.23;2.90;;;;;;;12.05;97.37;99760.06;5092890;28;20534;-67
2023/04/24 00:14:30;;;;;;;6.80;2.80;;;;;;;12.04;97.57;99759.28;5092774;28;20521;-67
2023/04/24 00:16:56;;;;;;;7.23;2.93;;;;;;;12.04;98.54;99753.03;5092710;28;20519;-67
2023/04/24 00:19:23;;;;;;;7.70;2.93;;;;;;;12.09;99.39;99752.88;5092796;28;20464;-67
2023/04/24 00:21:50;;;;;;;7.80;3.10;;;;;;;12.06;99.91;99750.81;5096254;28;20440;-67
2023/04/24 00:24:19;;;;;;;7.93;2.80;;;;;;;12.06;99.93;99740.75;5096460;28;20468;-67
2023/04/24 00:26:45;;;;;;;10.70;2.77;;;;;;;12.07;100.00;99741.53;5096513;28;20493;-67
2023/04/24 00:29:12;;;;;;;8.50;3.20;;;;;;;12.07;100.00;99741.53;5096499;28;20535;-66
2023/04/24 00:31:38;;;;;;;7.87;3.00;;;;;;;12.09;100.00;99742.00;5097776;28;20479;-67
2023/04/24 00:34:06;;;;;;;7.90;3.10;;;;;;;12.10;100.00;99730.00;5096428;28;20456;-67
2023/04/24 00:36:32;;;;;;;8.40;2.90;;;;;;;12.15;100.00;99732.53;5095978;28;20962;-67
2023/04/24 00:38:59;;;;;;;7.40;3.00;;;;;;;12.15;100.00;99718.94;5096292;28;20465;-67
2023/04/24 00:41:27;;;;;;;9.37;3.47;;;;;;;12.16;100.00;99715.09;5096246;28;20443;-67
2023/04/24 00:43:54;;;;;;;7.00;2.80;;;;;;;12.20;100.00;99712.53;5095831;28;20475;-67
2023/04/24 00:46:21;;;;;;;8.53;3.23;;;;;;;12.18;100.00;99704.72;5096152;28;20493;-67
2023/04/24 00:48:48;;;;;;;7.20;3.53;;;;;;;12.19;100.00;99700.88;5096068;28;20515;-67
2023/04/24 00:51:15;;;;;;;6.70;2.90;;;;;;;12.22;100.00;99702.94;5096123;28;20535;-67
2023/04/24 00:53:42;;;;;;;7.57;3.53;;;;;;;12.25;100.00;99691.38;5095615;28;20499;-67
2023/04/24 00:56:08;;;;;;;8.40;3.90;;;;;;;12.27;100.00;99694.56;5095995;28;20530;-67
2023/04/24 00:58:36;;;;;;;8.70;3.50;;;;;;;12.33;100.00;99685.06;5095816;28;20476;-67
2023/04/24 01:01:06;;;;;;;8.83;4.37;;;;;;;12.37;100.00;99696.06;5095874;28;20467;-67
2023/04/24 01:03:36;;;;;;;10.60;5.00;;;;;;;12.40;100.00;99700.84;5095691;28;20982;-67
2023/04/24 01:06:03;;;;;;;9.20;4.70;;;;;;;12.48;100.00;99699.94;5095494;28;20781;-67
2023/04/24 01:08:30;;;;;;;10.50;4.13;;;;;;;12.56;100.00;99704.50;5095636;28;20463;-67
2023/04/24 01:10:58;;;;;;;13.80;4.27;;;;;;;12.63;100.00;99722.97;5095761;28;20448;-67
2023/04/24 01:13:25;;;;;;;7.80;3.57;;;;;;;12.62;100.00;99711.31;5095543;28;20456;-67
2023/04/24 01:15:53;;;;;;;11.93;3.77;;;;;;;12.68;100.00;99716.53;5095585;28;20480;-67
2023/04/24 01:18:21;;;;;;;8.90;3.60;;;;;;;12.69;100.00;99708.03;5095411;28;20516;-67
2023/04/24 01:20:48;;;;;;;7.43;3.03;;;;;;;12.62;100.00;99708.59;5095184;28;20847;-67
2023/04/24 01:23:16;;;;;;;9.27;4.43;;;;;;;12.60;100.00;99704.63;5095057;28;20460;-67
2023/04/24 01:25:43;;;;;;;9.13;4.23;;;;;;;12.55;100.00;99704.84;5095375;28;20448;-68
2023/04/24 01:28:10;;;;;;;10.07;3.90;;;;;;;12.48;100.00;99699.16;5095020;28;20523;-68
2023/04/24 01:30:37;;;;;;;7.23;3.30;;;;;;;12.42;100.00;99704.00;5095160;28;20523;-69
2023/04/24 01:33:03;;;;;;;7.57;3.33;;;;;;;12.35;100.00;99690.97;5095173;28;20468;-68
2023/04/24 01:35:30;;;;;;;8.20;3.23;;;;;;;12.32;100.00;99685.41;5095235;28;20796;-69
2023/04/24 01:37:57;;;;;;;11.70;3.40;;;;;;;12.40;100.00;99691.91;5094826;28;20549;-69
2023/04/24 01:40:25;;;;;;;7.40;3.17;;;;;;;12.43;100.00;99693.94;5094777;28;20816;-68
2023/04/24 01:42:52;;;;;;;12.83;3.90;;;;;;;12.41;100.00;99688.84;5094622;28;20512;-69
2023/04/24 01:45:18;;;;;;;8.00;3.50;;;;;;;12.49;100.00;99695.31;5095087;28;20417;-69
2023/04/24 01:47:46;;;;;;;7.77;3.40;;;;;;;12.52;100.00;99689.19;5095302;28;20805;-68
2023/04/24 01:50:12;;;;;;;8.70;3.57;;;;;;;12.55;100.00;99683.88;5094635;28;20953;-69
2023/04/24 01:52:39;;;;;;;7.43;3.50;;;;;;;12.56;100.00;99681.97;5094802;28;20456;-67
2023/04/24 01:55:07;;;;;;;8.37;3.47;;;;;;;12.52;100.00;99675.63;5094869;28;20472;-67
2023/04/24 01:57:36;;;;;;;7.53;3.27;;;;;;;12.50;100.00;99673.25;5094410;28;21013;-67
2023/04/24 02:00:04;;;;;;;8.87;3.67;;;;;;;12.50;100.00;99667.03;5094721;28;20432;-68
2023/04/24 02:02:31;;;;;;;8.73;3.40;;;;;;;12.46;100.00;99672.31;5094608;28;20878;-67
2023/04/24 02:04:58;;;;;;;8.53;3.80;;;;;;;12.48;100.00;99680.13;5094690;28;20444;-68
2023/04/24 02:07:24;;;;;;;8.50;3.33;;;;;;;12.45;100.00;99675.38;5094581;28;20444;-68
2023/04/24 02:09:51;;;;;;;10.33;4.00;;;;;;;12.45;100.00;99672.66;5094276;28;20959;-67
2023/04/24 02:12:18;;;;;;;9.57;3.40;;;;;;;12.44;100.00;99673.78;5094540;28;20436;-67
2023/04/24 02:14:46;;;;;;;9.60;3.77;;;;;;;12.48;100.00;99664.63;5094106;28;20467;-68
2023/04/24 02:17:13;;;;;;;8.33;3.53;;;;;;;12.47;100.00;99668.47;5094017;28;20527;-68
2023/04/24 02:19:40;;;;;;;11.03;4.33;;;;;;;12.51;100.00;99669.38;5094406;28;20470;-68
2023/04/24 02:22:07;;;;;;;8.27;3.80;;;;;;;12.53;100.00;99660.94;5094334;28;20446;-68
2023/04/24 02:24:33;;;;;;;9.20;3.50;;;;;;;12.48;100.00;99661.13;5094092;28;20465;-68
2023/04/24 02:27:01;;;;;;;9.33;4.47;;;;;;;12.50;100.00;99664.31;5093916;28;20865;-69
2023/04/24 02:29:28;;;;;;;8.83;3.47;;;;;;;12.48;100.00;99655.69;5094179;28;20451;-68
2023/04/24 02:31:56;;;;;;;10.83;3.57;;;;;;;12.48;100.00;99658.41;5094161;28;20527;-68
2023/04/24 02:34:22;;;;;;;10.40;3.87;;;;;;;12.45;100.00;99654.44;5093695;28;20499;-68
2023/04/24 02:36:49;;;;;;;7.87;3.67;;;;;;;12.45;100.00;99649.03;5094060;28;20448;-68
2023/04/24 02:39:17;;;;;;;7.43;3.20;;;;;;;12.45;100.00;99648.22;5093966;28;20483;-68
2023/04/24 02:41:43;;;;;;;8.97;3.97;;;;;;;12.42;100.00;99638.81;5093968;28;20451;-67
2023/04/24 02:44:10;;;;;;;13.03;3.60;;;;;;;12.44;100.00;99643.91;5092891;28;20556;-68
2023/04/24 02:46:37;;;;;;;9.53;4.17;;;;;;;12.46;100.00;99645.16;5093835;28;20437;-68
2023/04/24 02:49:04;;;;;;;8.00;3.40;;;;;;;12.43;100.00;99647.75;5093828;28;20475;-68
2023/04/24 02:51:31;;;;;;;9.07;4.07;;;;;;;12.40;100.00;99651.94;5093786;28;20433;-68
2023/04/24 02:53:58;;;;;;;8.33;3.83;;;;;;;12.39;100.00;99647.63;5093716;28;20468;-68
2023/04/24 02:56:24;;;;;;;8.20;3.53;;;;;;;12.33;100.00;99644.34;5093683;28;20446;-68
2023/04/24 02:58:51;;;;;;;8.93;4.23;;;;;;;12.32;100.00;99644.69;5093269;28;20570;-68
2023/04/24 03:01:18;;;;;;;7.60;3.60;;;;;;;12.28;100.00;99647.28;5093642;28;20519;-68
2023/04/24 03:03:45;;;;;;;7.70;3.50;;;;;;;12.29;100.00;99648.84;5093515;28;20456;-67
2023/04/24 03:06:13;;;;;;;10.07;4.27;;;;;;;12.32;100.00;99658.25;5093552;28;20450;-68
2023/04/24 03:08:39;;;;;;;10.77;3.60;;;;;;;12.35;100.00;99655.69;5093146;28;20531;-68
2023/04/24 03:11:06;;;;;;;12.60;5.07;;;;;;;12.37;100.00;99656.13;5093521;28;20445;-67
2023/04/24 03:13:33;;;;;;;8.70;3.27;;;;;;;12.43;100.00;99650.47;5093029;28;20503;-67
2023/04/24 03:15:59;;;;;;;8.87;4.10;;;;;;;12.41;100.00;99658.97;5093383;28;20540;-67
2023/04/24 03:18:26;;;;;;;9.37;4.73;;;;;;;12.42;100.00;99665.19;5093232;28;20483;-67
2023/04/24 03:20:52;;;;;;;8.83;3.70;;;;;;;12.50;100.00;99669.75;5093314;28;20811;-67
2023/04/24 03:23:20;;;;;;;10.50;4.23;;;;;;;12.54;100.00;99663.28;5092768;28;21017;-67
2023/04/24 03:25:48;;;;;;;11.73;4.37;;;;;;;12.57;100.00;99672.69;5093299;28;20528;-67
2023/04/24 03:28:14;;;;;;;9.80;3.97;;;;;;;12.59;100.00;99670.44;5093241;28;20470;-68
2023/04/24 03:30:41;;;;;;;7.97;3.97;;;;;;;12.60;100.00;99672.00;5092916;28;20809;-67
2023/04/24 03:33:08;;;;;;;9.33;3.80;;;;;;;12.62;100.00;99665.13;5092862;28;20975;-68
2023/04/24 03:35:34;;;;;;;9.93;3.60;;;;;;;12.63;100.00;99663.19;5092918;28;20899;-68
2023/04/24 03:38:01;;;;;;;9.53;4.20;;;;;;;12.67;100.00;99666.84;5093111;28;20583;-67
2023/04/24 03:40:29;;;;;;;8.13;3.87;;;;;;;12.70;100.00;99666.13;5093142;28;20530;-67
2023/04/24 03:42:55;;;;;;;8.27;3.73;;;;;;;12.69;100.00;99664.56;5092900;28;20472;-68
2023/04/24 03:45:22;;;;;;;11.20;3.73;;;;;;;12.70;100.00;99671.56;5093090;28;20436;-69
2023/04/24 03:47:49;;;;;;;8.70;3.77;;;;;;;12.73;100.00;99664.69;5093055;28;20433;-69
2023/04/24 03:50:15;;;;;;;10.17;3.90;;;;;;;12.74;100.00;99667.06;5092834;28;20472;-73
2023/04/24 03:52:42;;;;;;;9.07;3.90;;;;;;;12.68;100.00;99668.41;5092990;28;20505;-73
2023/04/24 03:55:12;;;;;;;10.63;4.60;;;;;;;12.73;100.00;99670.13;5093939;28;20447;-72
2023/04/24 03:57:41;;;;;;;11.63;4.03;;;;;;;12.76;100.00;99666.72;5097102;28;20424;-68
2023/04/24 04:00:08;;;;;;;10.17;3.40;;;;;;;12.73;100.00;99668.19;5096790;28;20523;-69
2023/04/24 04:02:35;;;;;;;11.93;4.13;;;;;;;12.73;100.00;99667.41;5096545;28;20448;-67
2023/04/24 04:05:02;;;;;;;9.70;3.80;;;;;;;12.72;100.00;99666.59;5097003;28;20436;-68
2023/04/24 04:07:29;;;;;;;8.90;3.73;;;;;;;12.75;100.00;99668.66;5096613;28;20447;-68
2023/04/24 04:09:56;;;;;;;8.93;4.57;;;;;;;12.75;100.00;99657.78;5096820;28;20505;-67
2023/04/24 04:12:22;;;;;;;8.17;3.70;;;;;;;12.76;100.00;99650.44;5096788;28;20436;-67
2023/04/24 04:14:50;;;;;;;8.63;3.70;;;;;;;12.74;100.00;99658.91;5096801;28;20527;-67
2023/04/24 04:17:17;;;;;;;7.50;3.40;;;;;;;12.71;100.00;99653.38;5096761;28;20436;-68
2023/04/24 04:19:44;;;;;;;12.00;3.50;;;;;;;12.69;100.00;99664.56;5096601;28;20549;-67
2023/04/24 04:22:11;;;;;;;9.20;3.70;;;;;;;12.58;100.00;99655.28;5096592;28;20505;-67
2023/04/24 04:24:37;;;;;;;10.57;4.10;;;;;;;12.58;100.00;99658.78;5096524;28;20511;-67
2023/04/24 04:27:04;;;;;;;7.17;3.43;;;;;;;12.49;100.00;99660.00;5096525;28;20444;-67
2023/04/24 04:29:32;;;;;;;8.70;3.87;;;;;;;12.47;100.00;99659.53;5096458;28;20517;-67
2023/04/24 04:32:01;;;;;;;8.23;3.07;;;;;;;12.44;100.00;99657.47;5096453;28;20432;-67
2023/04/24 04:34:27;;;;;;;8.10;3.13;;;;;;;12.48;100.00;99663.84;5096301;28;20475;-68
2023/04/24 04:36:54;;;;;;;12.27;3.20;;;;;;;12.49;100.00;99660.00;5096276;28;20443;-67
2023/04/24 04:39:21;;;;;;;11.20;3.80;;;;;;;12.54;100.00;99662.50;5096191;28;20519;-67
2023/04/24 04:41:48;;;;;;;8.93;3.33;;;;;;;12.56;100.00;99662.94;5096142;28;20472;-68
2023/04/24 04:44:15;;;;;;;9.00;4.33;;;;;;;12.59;100.00;99670.44;5095803;28;20480;-68
2023/04/24 04:46:42;;;;;;;7.10;3.50;;;;;;;12.61;100.00;99674.38;5095915;28;20455;-67
2023/04/24 04:49:10;;;;;;;9.47;3.37;;;;;;;12.66;100.00;99669.88;5096020;28;20436;-68
2023/04/24 04:51:37;;;;;;;12.40;3.90;;;;;;;12.66;100.00;99673.41;5096066;28;20886;-68
2023/04/24 04:54:04;;;;;;;7.30;3.27;;;;;;;12.65;100.00;99679.16;5095657;28;20475;-68
2023/04/24 04:56:30;;;;;;;6.63;2.30;;;;;;;12.67;100.00;99677.69;5095706;28;21172;-68
2023/04/24 04:58:57;;;;;;;7.77;3.10;;;;;;;12.71;100.00;99680.53;5095858;28;20575;-67
2023/04/24 05:01:24;;;;;;;8.27;3.17;;;;;;;12.72;100.00;99682.13;5095557;28;20476;-67
2023/04/24 05:03:50;;;;;;;8.17;3.67;;;;;;;12.76;100.00;99691.19;5095747;28;20460;-67
2023/04/24 05:06:18;;;;;;;11.07;3.13;;;;;;;12.77;100.00;99688.13;5094960;28;20447;-67
2023/04/24 05:08:45;;;;;;;8.10;3.30;;;;;;;12.80;100.00;99690.19;5095384;28;20501;-67
2023/04/24 05:11:11;;;;;;;7.70;2.87;;;;;;;12.83;100.00;99691.41;5095350;28;20441;-67
2023/04/24 05:13:38;;;;;;;6.70;2.80;;;;;;;12.86;100.00;99688.03;5095225;28;20560;-67
2023/04/24 05:16:05;;;;;;;6.87;3.03;;;;;;;12.88;100.00;99685.75;5095422;28;20446;-67
2023/04/24 05:18:31;;;;;;;7.00;2.80;;;;;;;12.92;100.00;99683.16;5095136;28;20484;-67
2023/04/24 05:20:58;;;;;;;7.97;3.07;;;;;;;12.96;100.00;99690.28;5095198;28;20870;-67
2023/04/24 05:23:26;;;;;;;7.33;2.63;;;;;;;12.99;100.00;99694.25;5094781;28;20475;-67
2023/04/24 05:25:53;;;;;;;6.70;2.27;;;;;;;13.00;100.00;99698.56;5095019;28;20515;-67
2023/04/24 05:28:19;;;;;;;7.43;3.10;;;;;;;12.98;100.00;99698.91;5095066;28;20886;-67
2023/04/24 05:30:46;;;;;;;7.53;2.70;;;;;;;13.01;100.00;99703.66;5095035;28;20448;-67
2023/04/24 05:33:13;;;;;;;7.93;3.13;;;;;;;13.04;100.00;99707.63;5094832;28;20467;-67
2023/04/24 05:35:45;;;;;;;8.13;2.53;;;;;;;13.09;99.73;99710.91;5094923;28;20467;-67
2023/04/24 05:38:12;;;;;;;11.20;3.00;;;;;;;13.12;99.59;99714.88;5094873;28;20460;-67
2023/04/24 05:40:40;;;;;;;7.00;2.60;;;;;;;13.14;99.16;99704.44;5094745;28;20444;-66
2023/04/24 05:43:06;;;;;;;9.30;2.80;;;;;;;13.12;98.84;99712.16;5094465;28;20579;-67
2023/04/24 05:45:35;;;;;;;6.80;2.10;;;;;;;13.17;98.74;99708.44;5094681;28;20468;-67
2023/04/24 05:48:02;;;;;;;13.20;2.63;;;;;;;13.23;97.99;99715.25;5094531;28;20444;-73
2023/04/24 05:50:29;;;;;;;6.90;2.40;;;;;;;13.21;98.49;99712.06;5094453;28;20527;-67
2023/04/24 05:52:57;;;;;;;6.43;2.37;;;;;;;13.25;97.88;99716.50;5094414;28;20460;-66
2023/04/24 05:55:24;;;;;;;13.03;2.03;;;;;;;13.30;98.31;99724.44;5094160;28;20939;-66
2023/04/24 05:57:52;;;;;;;7.00;2.03;;;;;;;13.28;97.92;99718.56;5094352;28;20491;-66
2023/04/24 06:00:19;;;;;;;7.03;2.13;;;;;;;13.40;98.27;99715.03;5094226;28;20480;-66
2023/04/24 06:02:46;;;;;;;7.20;1.60;;;;;;;13.52;97.04;99717.75;5094140;28;20579;-66
2023/04/24 06:05:13;;;;;;;5.50;1.80;;;;;;;13.64;96.09;99719.66;5093759;28;20805;-66
2023/04/24 06:07:40;;;;;;;5.27;1.57;;;;;;;13.78;95.25;99725.53;5093850;28;20535;-66
2023/04/24 06:10:07;;;;;;;4.77;1.40;;;;;;;13.87;94.51;99726.19;5094146;28;20531;-66
2023/04/24 06:12:34;;;;;;;5.37;1.57;;;;;;;13.86;94.44;99732.78;5093935;28;20437;-66
2023/04/24 06:15:02;;;;;;;5.80;1.23;;;;;;;13.89;92.85;99734.78;5093765;28;20520;-66
2023/04/24 06:17:28;;;;;;;5.60;1.50;;;;;;;13.97;92.01;99737.72;5093265;28;20448;-66
2023/04/24 06:19:55;;;;;;;5.03;1.47;;;;;;;14.06;92.51;99724.75;5093746;28;20923;-66
2023/04/24 06:22:21;;;;;;;5.23;1.27;;;;;;;14.22;91.89;99731.06;5093955;28;20440;-65
2023/04/24 06:24:48;;;;;;;8.53;1.33;;;;;;;14.28;90.47;99728.88;5093480;28;20468;-66
2023/04/24 06:27:15;;;;;;;5.03;0.90;;;;;;;14.39;87.94;99736.22;5093835;28;20447;-71
2023/04/24 06:29:42;;;;;;;5.03;1.30;;;;;;;14.50;85.71;99736.53;5093814;28;20468;-66
2023/04/24 06:32:10;;;;;;;5.10;1.10;;;;;;;14.56;86.91;99732.41;5093551;28;20436;-66
2023/04/24 06:34:43;;;;;;;4.80;0.70;;;;;;;14.53;86.92;99741.31;5094345;28;20535;-66
2023/04/24 06:37:09;;;;;;;4.70;0.90;;;;;;;14.58;84.27;99742.97;5093454;28;20454;-66
2023/04/24 06:39:36;;;;;;;4.53;1.00;;;;;;;14.67;84.63;99737.38;5093106;28;20857;-66
2023/04/24 06:42:02;;;;;;;4.87;0.90;;;;;;;14.65;85.00;99734.97;5093604;28;20535;-66
2023/04/24 06:44:29;;;;;;;4.40;0.97;;;;;;;14.79;84.89;99737.31;5093046;28;20479;-66
2023/04/24 06:46:55;;;;;;;11.17;1.03;;;;;;;14.85;83.02;99738.63;5093185;28;20848;-66
2023/04/24 06:49:23;;;;;;;5.27;1.00;;;;;;;14.78;81.66;99738.44;5093175;28;20472;-66
2023/04/24 06:51:50;;;;;;;4.60;1.13;;;;;;;14.74;81.51;99732.91;5093131;28;20977;-66
2023/04/24 06:54:17;;;;;;;4.73;0.87;;;;;;;14.72;82.99;99731.66;5093354;28;20492;-67
2023/04/24 06:56:45;;;;;;;4.40;0.80;;;;;;;14.75;80.22;99729.03;5093605;28;20479;-66
2023/04/24 06:59:12;;;;;;;4.40;0.90;;;;;;;14.74;80.47;99732.91;5093613;28;20484;-66
2023/04/24 07:01:38;;;;;;;4.43;0.60;;;;;;;14.77;80.20;99737.63;5093686;28;20443;-66
2023/04/24 07:04:05;;;;;;;4.60;0.80;;;;;;;14.82;77.97;99736.59;5093550;28;20488;-65
2023/04/24 07:06:33;;;;;;;4.40;0.70;;;;;;;14.74;79.22;99729.34;5093218;28;20961;-66
2023/04/24 07:09:00;;;;;;;8.10;0.90;;;;;;;14.76;80.41;99721.63;5093234;28;20432;-66
2023/04/24 07:11:29;;;;;;;4.60;0.90;;;;;;;14.86;80.26;99729.28;5093185;28;20969;-66
2023/04/24 07:13:55;;;;;;;4.60;0.80;;;;;;;15.00;79.08;99729.66;5093052;28;20464;-66
2023/04/24 07:16:22;;;;;;;4.67;1.00;;;;;;;15.11;78.06;99730.72;5093413;28;20440;-66
2023/04/24 07:18:49;;;;;;;4.60;0.90;;;;;;;15.16;76.84;99726.16;5093054;28;20479;-67
2023/04/24 07:21:15;;;;;;;4.40;0.87;;;;;;;15.19;76.84;99720.00;5093325;28;20464;-67
2023/04/24 07:23:43;;;;;;;4.67;0.93;;;;;;;15.27;74.40;99727.19;5092824;28;20529;-67
2023/04/24 07:26:10;;;;;;;5.37;0.80;;;;;;;15.35;75.15;99732.44;5093308;28;20472;-67
2023/04/24 07:28:37;;;;;;;4.00;0.60;;;;;;;15.38;72.72;99736.41;5092656;28;20851;-68
2023/04/24 07:31:03;;;;;;;4.33;0.60;;;;;;;15.42;71.84;99741.97;5093227;28;20433;-70
2023/04/24 07:33:30;;;;;;;4.00;0.60;;;;;;;15.43;72.13;99735.34;5092843;28;20486;-73
2023/04/24 07:35:57;;;;;;;7.57;1.03;;;;;;;15.43;74.17;99741.59;5093231;28;20479;-70
2023/04/24 07:38:25;;;;;;;5.17;0.80;;;;;;;15.50;73.25;99738.25;5092894;28;20451;-69
2023/04/24 07:40:53;;;;;;;4.50;0.80;;;;;;;15.46;73.82;99734.66;5093075;28;20499;-68
2023/04/24 07:43:21;;;;;;;4.83;0.80;;;;;;;15.58;72.56;99726.34;5092683;28;20931;-68
2023/04/24 07:45:47;;;;;;;4.40;0.73;;;;;;;15.62;73.13;99719.03;5093124;28;20440;-69
2023/04/24 07:48:16;;;;;;;4.37;0.80;;;;;;;15.66;72.48;99739.03;5092802;28;20978;-69
2023/04/24 07:50:42;;;;;;;4.87;0.73;;;;;;;15.81;70.88;99729.25;5092914;28;20447;-70
2023/04/24 07:53:09;;;;;;;5.13;0.80;;;;;;;15.91;71.08;99730.59;5092841;28;20560;-68
2023/04/24 07:55:36;;;;;;;3.97;0.50;;;;;;;15.99;69.96;99730.41;5092923;28;20436;-68
2023/04/24 07:58:04;;;;;;;4.70;0.80;;;;;;;16.10;70.64;99739.59;5092974;28;20437;-68
2023/04/24 08:00:30;;;;;;;4.03;0.70;;;;;;;16.27;68.03;99723.94;5092552;28;20986;-68
2023/04/24 08:02:57;;;;;;;4.10;0.60;;;;;;;16.35;65.23;99731.91;5092853;28;20507;-68
2023/04/24 08:05:25;;;;;;;4.40;0.70;;;;;;;16.47;64.71;99739.19;5092823;28;20471;-68
2023/04/24 08:07:52;;;;;;;4.00;0.70;;;;;;;16.60;65.60;99728.84;5092339;28;20448;-68
2023/04/24 08:10:19;;;;;;;4.60;0.90;;;;;;;16.67;66.31;99733.66;5092771;28;20509;-68
2023/04/24 08:12:45;;;;;;;4.10;0.70;;;;;;;16.67;68.43;99736.41;5092614;28;20483;-68
2023/04/24 08:15:13;;;;;;;5.43;0.73;;;;;;;16.78;68.69;99734.69;5092463;28;20982;-68
2023/04/24 08:17:40;;;;;;;4.20;0.70;;;;;;;16.90;67.11;99740.75;5092434;28;20491;-68
2023/04/24 08:20:13;;;;;;;5.03;0.70;;;;;;;16.99;63.53;99748.72;5092774;28;20502;-69
2023/04/24 08:22:40;;;;;;;4.33;0.73;;;;;;;16.82;62.16;99733.59;5092702;28;20436;-69
2023/04/24 08:25:07;;;;;;;7.50;0.70;;;;;;;16.79;62.52;99731.59;5092488;28;20943;-68
2023/04/24 08:27:34;;;;;;;4.87;0.90;;;;;;;16.95;61.88;99730.66;5092661;28;20444;-68
2023/04/24 08:30:00;;;;;;;4.50;0.67;;;;;;;16.97;63.33;99731.13;5092395;28;20480;-68
2023/04/24 08:32:28;;;;;;;4.17;0.70;;;;;;;16.97;62.43;99731.91;5092559;28;20443;-68
2023/04/24 08:34:56;;;;;;;4.00;0.60;;;;;;;16.98;63.80;99729.94;5092645;28;20440;-68
2023/04/24 08:37:23;;;;;;;11.33;0.90;;;;;;;17.12;64.42;99730.19;5092533;28;20478;-69
2023/04/24 08:39:50;;;;;;;5.50;0.93;;;;;;;17.23;63.94;99741.31;5092519;28;20504;-68
2023/04/24 08:42:18;;;;;;;4.40;0.70;;;;;;;17.30;62.71;99735.94;5094878;28;20455;-68
2023/04/24 08:44:45;;;;;;;4.60;0.60;;;;;;;17.33;61.48;99751.66;5096185;28;20464;-68
2023/04/24 08:47:12;;;;;;;3.97;0.57;;;;;;;17.28;62.00;99749.22;5096215;28;20440;-68
2023/04/24 08:49:40;;;;;;;4.60;0.77;;;;;;;17.32;61.80;99739.91;5096174;28;20463;-68
2023/04/24 08:52:07;;;;;;;4.40;0.80;;;;;;;17.37;61.69;99742.31;5096017;28;20931;-68
2023/04/24 08:54:35;;;;;;;4.43;0.70;;;;;;;17.45;63.59;99747.94;5095955;28;20460;-68
2023/04/24 08:57:03;;;;;;;4.20;0.60;;;;;;;17.45;62.73;99736.97;5095738;28;20817;-70
2023/04/24 08:59:30;;;;;;;4.63;0.60;;;;;;;17.51;62.52;99740.97;5095877;28;20486;-66
2023/04/24 09:01:58;;;;;;;5.17;0.53;;;;;;;17.57;63.23;99739.47;5095595;28;20531;-68
2023/04/24 09:04:26;;;;;;;4.30;0.80;;;;;;;17.68;60.92;99753.34;5095441;28;20926;-67
2023/04/24 09:06:57;;;;;;;4.53;0.60;;;;;;;17.57;61.41;99745.75;5095813;28;20440;-68
2023/04/24 09:09:24;;;;;;;4.40;0.73;;;;;;;17.52;61.84;99743.31;5095453;28;20421;-68
2023/04/24 09:11:53;;;;;;;4.00;0.63;;;;;;;17.50;61.16;99750.34;5095370;28;20782;-68
2023/04/24 09:14:20;;;;;;;4.13;0.60;;;;;;;17.44;62.87;99743.59;5095564;28;20506;-68
2023/04/24 09:16:47;;;;;;;4.47;0.90;;;;;;;17.52;61.23;99737.84;5095629;28;20445;-68
2023/04/24 09:19:13;;;;;;;4.83;0.90;;;;;;;17.50;61.67;99745.66;5095491;28;20509;-68
2023/04/24 09:21:41;;;;;;;4.30;0.90;;;;;;;17.53;62.54;99744.94;5095351;28;20444;-68
2023/04/24 09:24:17;;;;;;;4.10;0.70;;;;;;;17.61;64.32;99745.81;5095343;28;20498;-68
2023/04/24 09:26:44;;;;;;;4.10;0.60;;;;;;;17.49;62.47;99743.28;5095376;28;20478;-67
2023/04/24 09:29:15;;;;;;;4.00;0.67;;;;;;;17.27;63.99;99744.91;5095288;28;20517;-67
2023/04/24 09:31:42;;;;;;;4.20;0.70;;;;;;;17.11;64.70;99745.03;5095368;28;20413;-68
2023/04/24 09:34:09;;;;;;;4.10;0.80;;;;;;;16.95;65.47;99742.41;5095196;28;20460;-68
2023/04/24 09:36:37;;;;;;;4.37;0.77;;;;;;;16.89;66.59;99741.91;5095163;28;20483;-68
2023/04/24 09:39:07;;;;;;;4.40;0.90;;;;;;;16.84;68.15;99750.44;5094879;28;20444;-68
2023/04/24 09:41:35;;;;;;;6.73;1.00;;;;;;;16.88;68.73;99750.50;5094537;28;20487;-68
2023/04/24 09:44:12;;;;;;;5.27;0.97;;;;;;;16.95;67.27;99752.56;5094548;28;20508;-68
2023/04/24 09:46:39;;;;;;;4.03;0.60;;;;;;;17.07;67.34;99750.44;5094609;28;20420;-67
2023/04/24 09:49:09;;;;;;;4.30;0.90;;;;;;;17.29;66.57;99753.53;5094909;28;20442;-68
2023/04/24 09:51:37;;;;;;;3.97;0.53;;;;;;;17.30;63.80;99755.88;5094561;28;20427;-68
2023/04/24 09:54:04;;;;;;;3.93;0.60;;;;;;;17.26;64.88;99755.03;5094719;28;20456;-68
2023/04/24 09:56:34;;;;;;;4.53;0.80;;;;;;;17.15;65.21;99748.63;5094768;28;20488;-68
2023/04/24 09:59:08;;;;;;;4.73;0.83;;;;;;;17.06;64.33;99743.38;5094818;28;20437;-68
2023/04/24 10:01:36;;;;;;;4.00;0.60;;;;;;;17.03;63.88;99746.06;5094682;28;20488;-68
2023/04/24 10:04:02;;;;;;;4.20;0.77;;;;;;;17.04;63.80;99744.91;5094872;28;20467;-68
2023/04/24 10:06:36;;;;;;;4.10;0.67;;;;;;;17.07;65.25;99738.69;5094598;28;20440;-67
2023/04/24 10:09:03;;;;;;;4.93;0.80;;;;;;;17.19;65.38;99746.72;5094290;28;20930;-67
2023/04/24 10:11:31;;;;;;;4.73;0.90;;;;;;;17.37;64.99;99738.81;5094179;28;20451;-68
2023/04/24 10:13:58;;;;;;;4.70;0.83;;;;;;;17.61;62.21;99745.81;5094368;28;20460;-68
2023/04/24 10:16:28;;;;;;;4.10;0.70;;;;;;;17.54;62.98;99741.03;5094237;28;20480;-68
2023/04/24 10:18:55;;;;;;;4.30;0.70;;;;;;;17.65;63.46;99741.16;5094033;28;20429;-68
2023/04/24 10:21:22;;;;;;;5.80;0.90;;;;;;;17.58;62.71;99741.88;5094130;28;20484;-68
2023/04/24 10:23:50;;;;;;;7.37;1.27;;;;;;;17.34;64.21;99734.06;5093925;28;20500;-67
2023/04/24 10:26:19;;;;;;;3.90;0.57;;;;;;;17.27;63.44;99744.91;5094204;28;20437;-68
2023/04/24 10:28:46;;;;;;;4.60;0.90;;;;;;;17.25;64.24;99739.78;5093981;28;20449;-66
2023/04/24 10:31:13;;;;;;;4.03;0.60;;;;;;;17.20;64.10;99742.84;5094061;28;20444;-67
2023/04/24 10:33:42;;;;;;;4.23;0.73;;;;;;;17.09;64.51;99737.19;5093720;28;20461;-68
2023/04/24 10:36:11;;;;;;;5.80;0.90;;;;;;;17.14;64.88;99730.63;5093073;28;20566;-69
2023/04/24 10:38:41;;;;;;;7.53;1.43;;;;;;;17.16;65.25;99725.56;5092962;28;20488;-68
2023/04/24 10:41:09;;;;;;;4.23;1.00;;;;;;;17.27;67.09;99714.81;5093206;28;20491;-67
2023/04/24 10:43:36;;;;;;;4.10;0.63;;;;;;;17.51;65.24;99713.59;5092789;28;20481;-68
2023/04/24 10:46:04;;;;;;;4.40;0.77;;;;;;;17.93;64.25;99718.91;5092869;28;20946;-67
2023/04/24 10:48:32;;;;;;;4.10;0.60;;;;;;;18.28;61.95;99726.78;5093092;28;20848;-68
2023/04/24 10:51:00;;;;;;;4.30;0.80;;;;;;;18.54;61.23;99725.88;5092838;28;20879;-68
2023/04/24 10:53:29;;;;;;;4.10;0.63;;;;;;;18.60;58.57;99742.78;5092655;28;20465;-69
2023/04/24 10:55:59;;;;;;;4.60;0.80;;;;;;;18.58;57.72;99736.88;5092979;28;20441;-68
2023/04/24 10:58:37;;;;;;;4.07;0.67;;;;;;;18.32;55.72;99748.72;5092966;28;20432;-69
2023/04/24 11:01:03;;;;;;;4.87;0.80;;;;;;;18.25;58.93;99743.97;5092582;28;20468;-69
2023/04/24 11:03:32;;;;;;;3.90;0.50;;;;;;;18.10;57.97;99733.97;5092445;28;20547;-69
2023/04/24 11:06:03;;;;;;;8.10;0.80;;;;;;;17.93;61.04;99746.31;5092764;28;20450;-70
2023/04/24 11:08:31;;;;;;;4.40;1.00;;;;;;;17.81;62.21;99747.31;5092823;28;20436;-69
2023/04/24 11:11:00;;;;;;;6.00;1.10;;;;;;;17.65;65.66;99732.94;5092800;28;20443;-69
2023/04/24 11:13:29;;;;;;;4.00;0.60;;;;;;;17.45;67.21;99739.72;5092605;28;20456;-69
2023/04/24 11:16:15;;;;;;;4.10;0.63;;;;;;;17.34;65.14;99740.31;5092673;28;20468;-69
2023/04/24 11:18:45;;;;;;;4.00;0.63;;;;;;;17.42;63.60;99743.19;5092681;28;20444;-68
2023/04/24 11:21:13;;;;;;;3.80;0.40;;;;;;;17.40;59.91;99741.59;5093146;28;20521;-69
2023/04/24 11:23:40;;;;;;;4.20;0.70;;;;;;;17.54;62.98;99734.75;5092517;28;20456;-73
2023/04/24 11:26:14;;;;;;;4.17;0.73;;;;;;;18.69;59.88;99728.78;5092623;28;20773;-68
2023/04/24 11:28:50;;;;;;;4.00;0.50;;;;;;;19.55;54.90;99722.03;5092337;28;20524;-68
2023/04/24 11:31:35;;;;;;;4.10;0.60;;;;;;;20.26;55.88;99724.41;5092250;28;20799;-69